sensor_id;sensor_type;location;lat;lon;timestamp;P1;durP1;ratioP1;P2;durP2;ratioP2
20982;SDS011;10650;51.528;6.748;2023-05-07T00:01:10;19.70;;;17.80;;
20982;SDS011;10650;51.528;6.748;2023-05-07T00:03:38;21.92;;;19.60;;
20982;SDS011;10650;51.528;6.748;2023-05-07T00:06:06;20.75;;;18.63;;
20982;SDS011;10650;51.528;6.748;2023-05-07T00:08:35;19.92;;;18.02;;
20982;SDS011;10650;51.528;6.748;2023-05-07T00:11:03;17.65;;;16.05;;
20982;SDS011;10650;51.528;6.748;2023-05-07T00:13:31;20.55;;;18.45;;
20982;SDS011;10650;51.528;6.748;2023-05-07T00:16:01;21.48;;;19.33;;
20982;SDS011;10650;51.528;6.748;2023-05-07T00:18:30;20.85;;;19.00;;
20982;SDS011;10650;51.528;6.748;2023-05-07T00:20:58;20.10;;;18.20;;
20982;SDS011;10650;51.528;6.748;2023-05-07T00:23:25;20.65;;;18.65;;
20982;SDS011;10650;51.528;6.748;2023-05-07T00:25:55;19.52;;;17.73;;
20982;SDS011;10650;51.528;6.748;2023-05-07T00:28:23;22.65;;;20.52;;
20982;SDS011;10650;51.528;6.748;2023-05-07T00:30:51;21.30;;;19.20;;
20982;SDS011;10650;51.528;6.748;2023-05-07T00:33:20;19.88;;;17.85;;
20982;SDS011;10650;51.528;6.748;2023-05-07T00:35:48;20.30;;;18.33;;
20982;SDS011;10650;51.528;6.748;2023-05-07T00:38:16;18.45;;;16.70;;
20982;SDS011;10650;51.528;6.748;2023-05-07T00:40:44;21.83;;;19.77;;
20982;SDS011;10650;51.528;6.748;2023-05-07T00:43:13;20.67;;;18.67;;
20982;SDS011;10650;51.528;6.748;2023-05-07T00:45:41;20.33;;;18.27;;
20982;SDS011;10650;51.528;6.748;2023-05-07T00:48:09;20.05;;;18.08;;
20982;SDS011;10650;51.528;6.748;2023-05-07T00:50:37;20.15;;;18.17;;
20982;SDS011;10650;51.528;6.748;2023-05-07T00:53:05;24.17;;;21.83;;
20982;SDS011;10650;51.528;6.748;2023-05-07T00:55:34;21.35;;;19.38;;
20982;SDS011;10650;51.528;6.748;2023-05-07T00:58:03;21.58;;;19.48;;
20982;SDS011;10650;51.528;6.748;2023-05-07T01:00:33;24.42;;;21.92;;
20982;SDS011;10650;51.528;6.748;2023-05-07T01:03:02;22.92;;;20.67;;
20982;SDS011;10650;51.528;6.748;2023-05-07T01:05:30;23.02;;;20.70;;
20982;SDS011;10650;51.528;6.748;2023-05-07T01:07:59;23.02;;;20.80;;
20982;SDS011;10650;51.528;6.748;2023-05-07T01:10:28;25.13;;;22.52;;
20982;SDS011;10650;51.528;6.748;2023-05-07T01:12:57;26.27;;;23.67;;
20982;SDS011;10650;51.528;6.748;2023-05-07T01:15:26;25.55;;;22.90;;
20982;SDS011;10650;51.528;6.748;2023-05-07T01:17:56;25.42;;;22.83;;
20982;SDS011;10650;51.528;6.748;2023-05-07T01:20:24;26.17;;;23.50;;
20982;SDS011;10650;51.528;6.748;2023-05-07T01:22:54;20.40;;;18.58;;
20982;SDS011;10650;51.528;6.748;2023-05-07T01:25:22;24.27;;;21.92;;
20982;SDS011;10650;51.528;6.748;2023-05-07T01:27:52;25.42;;;22.90;;
20982;SDS011;10650;51.528;6.748;2023-05-07T01:30:20;21.17;;;19.23;;
20982;SDS011;10650;51.528;6.748;2023-05-07T01:32:51;21.38;;;19.27;;
20982;SDS011;10650;51.528;6.748;2023-05-07T01:35:25;24.48;;;22.15;;
20982;SDS011;10650;51.528;6.748;2023-05-07T01:37:57;26.63;;;24.00;;
20982;SDS011;10650;51.528;6.748;2023-05-07T01:40:26;20.73;;;18.83;;
20982;SDS011;10650;51.528;6.748;2023-05-07T01:42:55;24.35;;;21.95;;
20982;SDS011;10650;51.528;6.748;2023-05-07T01:45:23;27.70;;;24.83;;
20982;SDS011;10650;51.528;6.748;2023-05-07T01:47:52;24.13;;;21.80;;
20982;SDS011;10650;51.528;6.748;2023-05-07T01:50:21;23.17;;;20.58;;
20982;SDS011;10650;51.528;6.748;2023-05-07T01:52:49;23.65;;;21.23;;
20982;SDS011;10650;51.528;6.748;2023-05-07T01:55:19;26.10;;;23.40;;
20982;SDS011;10650;51.528;6.748;2023-05-07T01:57:47;27.67;;;24.77;;
20982;SDS011;10650;51.528;6.748;2023-05-07T02:00:16;23.25;;;20.95;;
20982;SDS011;10650;51.528;6.748;2023-05-07T02:02:45;23.90;;;21.50;;
20982;SDS011;10650;51.528;6.748;2023-05-07T02:05:13;26.23;;;23.73;;
20982;SDS011;10650;51.528;6.748;2023-05-07T02:07:43;24.05;;;21.65;;
20982;SDS011;10650;51.528;6.748;2023-05-07T02:10:11;27.88;;;25.17;;
20982;SDS011;10650;51.528;6.748;2023-05-07T02:12:41;27.60;;;24.80;;
20982;SDS011;10650;51.528;6.748;2023-05-07T02:15:09;28.88;;;26.08;;
20982;SDS011;10650;51.528;6.748;2023-05-07T02:17:39;25.48;;;22.88;;
20982;SDS011;10650;51.528;6.748;2023-05-07T02:20:25;27.08;;;24.38;;
20982;SDS011;10650;51.528;6.748;2023-05-07T02:22:53;26.67;;;23.98;;
20982;SDS011;10650;51.528;6.748;2023-05-07T02:25:21;28.27;;;25.50;;
20982;SDS011;10650;51.528;6.748;2023-05-07T02:27:50;25.63;;;23.13;;
20982;SDS011;10650;51.528;6.748;2023-05-07T02:30:19;30.20;;;27.17;;
20982;SDS011;10650;51.528;6.748;2023-05-07T02:32:47;27.60;;;24.88;;
20982;SDS011;10650;51.528;6.748;2023-05-07T02:35:16;26.10;;;23.50;;
20982;SDS011;10650;51.528;6.748;2023-05-07T02:37:44;31.92;;;28.70;;
20982;SDS011;10650;51.528;6.748;2023-05-07T02:40:12;28.58;;;25.67;;
20982;SDS011;10650;51.528;6.748;2023-05-07T02:42:40;31.88;;;28.65;;
20982;SDS011;10650;51.528;6.748;2023-05-07T02:45:10;28.10;;;25.30;;
20982;SDS011;10650;51.528;6.748;2023-05-07T02:47:38;29.45;;;26.45;;
20982;SDS011;10650;51.528;6.748;2023-05-07T02:50:06;29.67;;;26.48;;
20982;SDS011;10650;51.528;6.748;2023-05-07T02:52:35;29.88;;;26.77;;
20982;SDS011;10650;51.528;6.748;2023-05-07T02:55:03;28.13;;;25.30;;
20982;SDS011;10650;51.528;6.748;2023-05-07T02:57:32;23.83;;;21.42;;
20982;SDS011;10650;51.528;6.748;2023-05-07T03:00:06;28.10;;;25.15;;
20982;SDS011;10650;51.528;6.748;2023-05-07T03:02:39;31.73;;;28.52;;
20982;SDS011;10650;51.528;6.748;2023-05-07T03:05:07;32.30;;;28.90;;
20982;SDS011;10650;51.528;6.748;2023-05-07T03:07:35;27.63;;;24.90;;
20982;SDS011;10650;51.528;6.748;2023-05-07T03:10:04;28.02;;;25.23;;
20982;SDS011;10650;51.528;6.748;2023-05-07T03:12:32;32.17;;;28.80;;
20982;SDS011;10650;51.528;6.748;2023-05-07T03:15:00;29.90;;;26.83;;
20982;SDS011;10650;51.528;6.748;2023-05-07T03:17:30;25.90;;;23.23;;
20982;SDS011;10650;51.528;6.748;2023-05-07T03:19:58;34.10;;;30.70;;
20982;SDS011;10650;51.528;6.748;2023-05-07T03:22:26;29.00;;;26.10;;
20982;SDS011;10650;51.528;6.748;2023-05-07T03:24:53;32.70;;;29.38;;
20982;SDS011;10650;51.528;6.748;2023-05-07T03:27:21;29.70;;;26.75;;
20982;SDS011;10650;51.528;6.748;2023-05-07T03:29:49;37.58;;;33.60;;
20982;SDS011;10650;51.528;6.748;2023-05-07T03:32:17;38.20;;;33.50;;
20982;SDS011;10650;51.528;6.748;2023-05-07T03:34:46;39.50;;;35.22;;
20982;SDS011;10650;51.528;6.748;2023-05-07T03:37:14;35.67;;;32.05;;
20982;SDS011;10650;51.528;6.748;2023-05-07T03:39:42;36.63;;;32.78;;
20982;SDS011;10650;51.528;6.748;2023-05-07T03:42:10;40.83;;;36.45;;
20982;SDS011;10650;51.528;6.748;2023-05-07T03:44:38;35.40;;;31.73;;
20982;SDS011;10650;51.528;6.748;2023-05-07T03:47:06;39.88;;;35.55;;
20982;SDS011;10650;51.528;6.748;2023-05-07T03:49:34;33.47;;;29.98;;
20982;SDS011;10650;51.528;6.748;2023-05-07T03:52:06;43.03;;;38.42;;
20982;SDS011;10650;51.528;6.748;2023-05-07T03:54:34;41.97;;;37.42;;
20982;SDS011;10650;51.528;6.748;2023-05-07T03:57:02;43.25;;;38.67;;
20982;SDS011;10650;51.528;6.748;2023-05-07T03:59:30;39.15;;;35.03;;
20982;SDS011;10650;51.528;6.748;2023-05-07T04:01:58;42.38;;;37.78;;
20982;SDS011;10650;51.528;6.748;2023-05-07T04:04:30;40.97;;;36.55;;
20982;SDS011;10650;51.528;6.748;2023-05-07T04:07:01;37.60;;;33.67;;
20982;SDS011;10650;51.528;6.748;2023-05-07T04:09:30;44.03;;;38.65;;
20982;SDS011;10650;51.528;6.748;2023-05-07T04:11:58;36.97;;;33.20;;
20982;SDS011;10650;51.528;6.748;2023-05-07T04:14:27;40.17;;;35.88;;
20982;SDS011;10650;51.528;6.748;2023-05-07T04:16:56;38.80;;;34.70;;
20982;SDS011;10650;51.528;6.748;2023-05-07T04:19:24;31.63;;;28.40;;
20982;SDS011;10650;51.528;6.748;2023-05-07T04:21:52;41.00;;;36.47;;
20982;SDS011;10650;51.528;6.748;2023-05-07T04:24:21;39.92;;;35.65;;
20982;SDS011;10650;51.528;6.748;2023-05-07T04:26:50;33.33;;;29.88;;
20982;SDS011;10650;51.528;6.748;2023-05-07T04:29:19;40.97;;;36.55;;
20982;SDS011;10650;51.528;6.748;2023-05-07T04:31:47;39.40;;;35.20;;
20982;SDS011;10650;51.528;6.748;2023-05-07T04:34:15;35.78;;;32.08;;
20982;SDS011;10650;51.528;6.748;2023-05-07T04:36:43;34.03;;;30.58;;
20982;SDS011;10650;51.528;6.748;2023-05-07T04:39:12;33.72;;;30.15;;
20982;SDS011;10650;51.528;6.748;2023-05-07T04:41:40;36.92;;;33.03;;
20982;SDS011;10650;51.528;6.748;2023-05-07T04:44:09;35.45;;;31.67;;
20982;SDS011;10650;51.528;6.748;2023-05-07T04:46:37;35.15;;;31.40;;
20982;SDS011;10650;51.528;6.748;2023-05-07T04:49:05;39.47;;;35.22;;
20982;SDS011;10650;51.528;6.748;2023-05-07T04:51:33;40.05;;;35.70;;
20982;SDS011;10650;51.528;6.748;2023-05-07T04:54:01;35.15;;;31.38;;
20982;SDS011;10650;51.528;6.748;2023-05-07T04:56:29;35.08;;;31.38;;
20982;SDS011;10650;51.528;6.748;2023-05-07T04:58:57;32.20;;;28.75;;
20982;SDS011;10650;51.528;6.748;2023-05-07T05:01:26;43.53;;;36.55;;
20982;SDS011;10650;51.528;6.748;2023-05-07T05:03:55;39.70;;;35.50;;
20982;SDS011;10650;51.528;6.748;2023-05-07T05:06:22;40.20;;;35.63;;
20982;SDS011;10650;51.528;6.748;2023-05-07T05:08:50;42.65;;;37.70;;
20982;SDS011;10650;51.528;6.748;2023-05-07T05:11:18;40.80;;;36.47;;
20982;SDS011;10650;51.528;6.748;2023-05-07T05:13:47;32.40;;;29.10;;
20982;SDS011;10650;51.528;6.748;2023-05-07T05:16:15;40.20;;;35.58;;
20982;SDS011;10650;51.528;6.748;2023-05-07T05:18:45;34.00;;;30.40;;
20982;SDS011;10650;51.528;6.748;2023-05-07T05:21:13;37.40;;;32.33;;
20982;SDS011;10650;51.528;6.748;2023-05-07T05:23:41;40.33;;;35.83;;
20982;SDS011;10650;51.528;6.748;2023-05-07T05:26:08;29.38;;;26.20;;
20982;SDS011;10650;51.528;6.748;2023-05-07T05:28:36;29.13;;;26.13;;
20982;SDS011;10650;51.528;6.748;2023-05-07T05:31:04;32.90;;;29.38;;
20982;SDS011;10650;51.528;6.748;2023-05-07T05:33:32;30.85;;;27.60;;
20982;SDS011;10650;51.528;6.748;2023-05-07T05:36:03;32.60;;;28.90;;
20982;SDS011;10650;51.528;6.748;2023-05-07T05:38:32;35.72;;;31.60;;
20982;SDS011;10650;51.528;6.748;2023-05-07T05:41:00;35.45;;;31.23;;
20982;SDS011;10650;51.528;6.748;2023-05-07T05:43:28;34.72;;;30.92;;
20982;SDS011;10650;51.528;6.748;2023-05-07T05:45:56;32.08;;;28.80;;
20982;SDS011;10650;51.528;6.748;2023-05-07T05:48:25;31.20;;;27.80;;
20982;SDS011;10650;51.528;6.748;2023-05-07T05:50:53;34.03;;;30.42;;
20982;SDS011;10650;51.528;6.748;2023-05-07T05:53:22;35.05;;;30.67;;
20982;SDS011;10650;51.528;6.748;2023-05-07T05:55:50;31.75;;;28.10;;
20982;SDS011;10650;51.528;6.748;2023-05-07T05:58:19;30.45;;;27.15;;
20982;SDS011;10650;51.528;6.748;2023-05-07T06:00:47;35.58;;;28.13;;
20982;SDS011;10650;51.528;6.748;2023-05-07T06:03:18;29.48;;;26.33;;
20982;SDS011;10650;51.528;6.748;2023-05-07T06:05:47;29.52;;;26.30;;
20982;SDS011;10650;51.528;6.748;2023-05-07T06:08:19;28.50;;;24.92;;
20982;SDS011;10650;51.528;6.748;2023-05-07T06:10:52;26.55;;;23.45;;
20982;SDS011;10650;51.528;6.748;2023-05-07T06:14:07;27.70;;;24.73;;
20982;SDS011;10650;51.528;6.748;2023-05-07T06:16:56;25.92;;;23.15;;
20982;SDS011;10650;51.528;6.748;2023-05-07T06:19:29;24.77;;;20.92;;
20982;SDS011;10650;51.528;6.748;2023-05-07T06:21:58;22.63;;;20.23;;
20982;SDS011;10650;51.528;6.748;2023-05-07T06:24:40;21.92;;;19.58;;
20982;SDS011;10650;51.528;6.748;2023-05-07T06:27:21;19.55;;;17.52;;
20982;SDS011;10650;51.528;6.748;2023-05-07T06:30:19;19.17;;;17.08;;
20982;SDS011;10650;51.528;6.748;2023-05-07T06:32:56;20.20;;;17.00;;
20982;SDS011;10650;51.528;6.748;2023-05-07T06:35:35;18.92;;;16.90;;
20982;SDS011;10650;51.528;6.748;2023-05-07T06:38:06;16.70;;;14.95;;
20982;SDS011;10650;51.528;6.748;2023-05-07T06:40:37;16.50;;;15.00;;
20982;SDS011;10650;51.528;6.748;2023-05-07T06:43:08;15.68;;;13.95;;
20982;SDS011;10650;51.528;6.748;2023-05-07T06:45:42;14.10;;;12.63;;
20982;SDS011;10650;51.528;6.748;2023-05-07T06:48:14;13.90;;;12.50;;
20982;SDS011;10650;51.528;6.748;2023-05-07T06:50:50;14.18;;;12.73;;
20982;SDS011;10650;51.528;6.748;2023-05-07T06:53:25;13.00;;;11.70;;
20982;SDS011;10650;51.528;6.748;2023-05-07T06:55:58;14.43;;;12.75;;
20982;SDS011;10650;51.528;6.748;2023-05-07T06:58:41;14.32;;;12.82;;
20982;SDS011;10650;51.528;6.748;2023-05-07T07:01:17;13.88;;;11.63;;
20982;SDS011;10650;51.528;6.748;2023-05-07T07:03:48;12.48;;;11.27;;
20982;SDS011;10650;51.528;6.748;2023-05-07T07:06:19;13.15;;;11.82;;
20982;SDS011;10650;51.528;6.748;2023-05-07T07:09:06;13.07;;;11.40;;
20982;SDS011;10650;51.528;6.748;2023-05-07T07:11:53;11.75;;;10.55;;
20982;SDS011;10650;51.528;6.748;2023-05-07T07:14:38;11.65;;;10.45;;
20982;SDS011;10650;51.528;6.748;2023-05-07T07:17:06;11.70;;;10.50;;
20982;SDS011;10650;51.528;6.748;2023-05-07T07:19:39;12.55;;;11.25;;
20982;SDS011;10650;51.528;6.748;2023-05-07T07:22:10;11.00;;;9.85;;
20982;SDS011;10650;51.528;6.748;2023-05-07T07:24:41;11.07;;;9.90;;
20982;SDS011;10650;51.528;6.748;2023-05-07T07:27:13;12.47;;;10.43;;
20982;SDS011;10650;51.528;6.748;2023-05-07T07:29:56;11.57;;;9.27;;
20982;SDS011;10650;51.528;6.748;2023-05-07T07:32:41;10.50;;;9.40;;
20982;SDS011;10650;51.528;6.748;2023-05-07T07:35:10;10.38;;;8.45;;
20982;SDS011;10650;51.528;6.748;2023-05-07T07:37:54;9.13;;;8.20;;
20982;SDS011;10650;51.528;6.748;2023-05-07T07:40:47;9.90;;;8.35;;
20982;SDS011;10650;51.528;6.748;2023-05-07T07:43:27;9.02;;;7.70;;
20982;SDS011;10650;51.528;6.748;2023-05-07T07:46:07;9.43;;;7.53;;
20982;SDS011;10650;51.528;6.748;2023-05-07T08:07:49;7.32;;;5.68;;
20982;SDS011;10650;51.528;6.748;2023-05-07T08:10:40;8.27;;;6.68;;
20982;SDS011;10650;51.528;6.748;2023-05-07T08:13:19;6.00;;;5.10;;
20982;SDS011;10650;51.528;6.748;2023-05-07T08:15:58;7.15;;;6.20;;
20982;SDS011;10650;51.528;6.748;2023-05-07T08:18:48;7.78;;;5.47;;
20982;SDS011;10650;51.528;6.748;2023-05-07T08:21:25;6.15;;;5.20;;
20982;SDS011;10650;51.528;6.748;2023-05-07T08:24:14;5.00;;;4.50;;
20982;SDS011;10650;51.528;6.748;2023-05-07T08:27:04;4.80;;;4.28;;
20982;SDS011;10650;51.528;6.748;2023-05-07T08:29:43;7.70;;;5.00;;
20982;SDS011;10650;51.528;6.748;2023-05-07T08:32:17;5.38;;;4.78;;
20982;SDS011;10650;51.528;6.748;2023-05-07T08:34:51;7.60;;;4.68;;
20982;SDS011;10650;51.528;6.748;2023-05-07T08:37:36;4.78;;;4.20;;
20982;SDS011;10650;51.528;6.748;2023-05-07T08:40:11;6.38;;;5.30;;
20982;SDS011;10650;51.528;6.748;2023-05-07T08:42:40;6.18;;;4.60;;
20982;SDS011;10650;51.528;6.748;2023-05-07T08:45:29;6.60;;;4.35;;
20982;SDS011;10650;51.528;6.748;2023-05-07T08:48:02;5.18;;;3.85;;
20982;SDS011;10650;51.528;6.748;2023-05-07T08:50:39;5.85;;;4.20;;
20982;SDS011;10650;51.528;6.748;2023-05-07T08:53:08;5.60;;;4.05;;
20982;SDS011;10650;51.528;6.748;2023-05-07T08:55:39;5.32;;;4.32;;
20982;SDS011;10650;51.528;6.748;2023-05-07T08:58:11;4.88;;;4.22;;
20982;SDS011;10650;51.528;6.748;2023-05-07T09:00:46;6.68;;;3.70;;
20982;SDS011;10650;51.528;6.748;2023-05-07T09:03:28;5.85;;;4.05;;
20982;SDS011;10650;51.528;6.748;2023-05-07T09:06:02;4.93;;;3.80;;
20982;SDS011;10650;51.528;6.748;2023-05-07T09:08:34;5.55;;;4.00;;
20982;SDS011;10650;51.528;6.748;2023-05-07T09:11:35;6.07;;;4.10;;
20982;SDS011;10650;51.528;6.748;2023-05-07T09:14:21;4.32;;;3.92;;
20982;SDS011;10650;51.528;6.748;2023-05-07T09:16:56;4.75;;;4.15;;
20982;SDS011;10650;51.528;6.748;2023-05-07T09:19:38;7.80;;;4.90;;
20982;SDS011;10650;51.528;6.748;2023-05-07T09:22:39;5.45;;;4.30;;
20982;SDS011;10650;51.528;6.748;2023-05-07T09:25:54;5.60;;;3.90;;
20982;SDS011;10650;51.528;6.748;2023-05-07T09:35:15;4.78;;;4.00;;
20982;SDS011;10650;51.528;6.748;2023-05-07T09:38:10;5.47;;;4.53;;
20982;SDS011;10650;51.528;6.748;2023-05-07T09:41:12;4.90;;;4.40;;
20982;SDS011;10650;51.528;6.748;2023-05-07T09:44:16;6.30;;;4.00;;
20982;SDS011;10650;51.528;6.748;2023-05-07T09:54:13;4.63;;;3.60;;
20982;SDS011;10650;51.528;6.748;2023-05-07T09:57:10;4.00;;;3.40;;
20982;SDS011;10650;51.528;6.748;2023-05-07T09:59:40;5.28;;;4.20;;
20982;SDS011;10650;51.528;6.748;2023-05-07T10:02:14;5.10;;;4.60;;
20982;SDS011;10650;51.528;6.748;2023-05-07T10:22:57;4.50;;;4.10;;
20982;SDS011;10650;51.528;6.748;2023-05-07T10:30:17;6.28;;;4.22;;
20982;SDS011;10650;51.528;6.748;2023-05-07T10:59:32;4.47;;;3.35;;
20982;SDS011;10650;51.528;6.748;2023-05-07T11:09:58;3.25;;;2.88;;
20982;SDS011;10650;51.528;6.748;2023-05-07T11:17:51;3.63;;;2.90;;
20982;SDS011;10650;51.528;6.748;2023-05-07T11:24:42;3.40;;;3.00;;
20982;SDS011;10650;51.528;6.748;2023-05-07T11:32:00;4.68;;;2.70;;
20982;SDS011;10650;51.528;6.748;2023-05-07T11:35:26;3.42;;;2.22;;
20982;SDS011;10650;51.528;6.748;2023-05-07T11:38:34;2.95;;;2.20;;
20982;SDS011;10650;51.528;6.748;2023-05-07T11:41:41;3.15;;;2.13;;
20982;SDS011;10650;51.528;6.748;2023-05-07T11:44:49;5.28;;;2.47;;
20982;SDS011;10650;51.528;6.748;2023-05-07T11:48:41;4.13;;;2.72;;
20982;SDS011;10650;51.528;6.748;2023-05-07T11:51:51;2.92;;;2.50;;
20982;SDS011;10650;51.528;6.748;2023-05-07T11:55:29;3.17;;;2.50;;
20982;SDS011;10650;51.528;6.748;2023-05-07T12:10:30;4.15;;;3.38;;
20982;SDS011;10650;51.528;6.748;2023-05-07T12:13:42;2.85;;;2.60;;
20982;SDS011;10650;51.528;6.748;2023-05-07T12:16:11;3.67;;;2.83;;
20982;SDS011;10650;51.528;6.748;2023-05-07T12:18:40;2.80;;;2.53;;
20982;SDS011;10650;51.528;6.748;2023-05-07T12:21:11;3.60;;;2.72;;
20982;SDS011;10650;51.528;6.748;2023-05-07T12:24:13;3.10;;;2.60;;
20982;SDS011;10650;51.528;6.748;2023-05-07T12:30:27;4.38;;;2.92;;
20982;SDS011;10650;51.528;6.748;2023-05-07T12:33:16;3.42;;;2.60;;
20982;SDS011;10650;51.528;6.748;2023-05-07T12:35:58;4.82;;;2.72;;
20982;SDS011;10650;51.528;6.748;2023-05-07T13:25:16;4.30;;;3.58;;
20982;SDS011;10650;51.528;6.748;2023-05-07T13:42:18;4.63;;;4.22;;
20982;SDS011;10650;51.528;6.748;2023-05-07T13:44:48;5.95;;;5.35;;
20982;SDS011;10650;51.528;6.748;2023-05-07T13:47:22;5.78;;;5.20;;
20982;SDS011;10650;51.528;6.748;2023-05-07T13:50:01;6.20;;;5.45;;
20982;SDS011;10650;51.528;6.748;2023-05-07T13:52:42;6.47;;;5.87;;
20982;SDS011;10650;51.528;6.748;2023-05-07T14:23:58;6.18;;;5.68;;
20982;SDS011;10650;51.528;6.748;2023-05-07T14:27:12;7.22;;;5.35;;
20982;SDS011;10650;51.528;6.748;2023-05-07T14:29:47;5.95;;;5.32;;
20982;SDS011;10650;51.528;6.748;2023-05-07T14:32:35;6.47;;;5.82;;
20982;SDS011;10650;51.528;6.748;2023-05-07T14:35:53;6.20;;;5.60;;
20982;SDS011;10650;51.528;6.748;2023-05-07T14:42:21;7.82;;;6.82;;
20982;SDS011;10650;51.528;6.748;2023-05-07T14:45:23;7.32;;;6.55;;
20982;SDS011;10650;51.528;6.748;2023-05-07T14:48:12;9.25;;;6.63;;
20982;SDS011;10650;51.528;6.748;2023-05-07T14:51:16;8.27;;;6.88;;
20982;SDS011;10650;51.528;6.748;2023-05-07T15:10:10;10.27;;;9.00;;
20982;SDS011;10650;51.528;6.748;2023-05-07T15:12:39;11.50;;;10.27;;
20982;SDS011;10650;51.528;6.748;2023-05-07T15:15:10;10.90;;;9.73;;
20982;SDS011;10650;51.528;6.748;2023-05-07T18:37:53;4.95;;;4.55;;
20982;SDS011;10650;51.528;6.748;2023-05-07T20:56:39;18.05;;;16.25;;
20982;SDS011;10650;51.528;6.748;2023-05-07T20:59:07;17.33;;;15.63;;
20982;SDS011;10650;51.528;6.748;2023-05-07T21:01:41;18.23;;;16.27;;
20982;SDS011;10650;51.528;6.748;2023-05-07T21:04:17;15.55;;;13.95;;
20982;SDS011;10650;51.528;6.748;2023-05-07T21:07:27;14.00;;;12.25;;
20982;SDS011;10650;51.528;6.748;2023-05-07T21:13:32;16.27;;;14.53;;
20982;SDS011;10650;51.528;6.748;2023-05-07T21:16:06;12.33;;;11.13;;
20982;SDS011;10650;51.528;6.748;2023-05-07T21:18:36;14.40;;;13.10;;
20982;SDS011;10650;51.528;6.748;2023-05-07T21:21:06;13.48;;;12.15;;
20982;SDS011;10650;51.528;6.748;2023-05-07T21:23:41;18.10;;;16.20;;
20982;SDS011;10650;51.528;6.748;2023-05-07T21:26:16;16.15;;;14.65;;
20982;SDS011;10650;51.528;6.748;2023-05-07T21:28:50;23.02;;;20.65;;
20982;SDS011;10650;51.528;6.748;2023-05-07T21:31:19;25.92;;;22.52;;
20982;SDS011;10650;51.528;6.748;2023-05-07T21:33:49;29.35;;;25.55;;
20982;SDS011;10650;51.528;6.748;2023-05-07T21:36:21;25.98;;;23.27;;
20982;SDS011;10650;51.528;6.748;2023-05-07T21:38:54;24.95;;;22.33;;
20982;SDS011;10650;51.528;6.748;2023-05-07T21:41:37;29.58;;;25.27;;
20982;SDS011;10650;51.528;6.748;2023-05-07T21:44:07;30.33;;;26.42;;
20982;SDS011;10650;51.528;6.748;2023-05-07T21:46:36;31.08;;;24.80;;
20982;SDS011;10650;51.528;6.748;2023-05-07T21:49:05;23.13;;;20.38;;
20982;SDS011;10650;51.528;6.748;2023-05-07T21:51:35;20.10;;;18.05;;
20982;SDS011;10650;51.528;6.748;2023-05-07T21:54:06;19.85;;;17.95;;
20982;SDS011;10650;51.528;6.748;2023-05-07T21:56:38;19.08;;;17.25;;
20982;SDS011;10650;51.528;6.748;2023-05-07T21:59:09;19.80;;;17.88;;
20982;SDS011;10650;51.528;6.748;2023-05-07T22:01:37;19.48;;;17.55;;
20982;SDS011;10650;51.528;6.748;2023-05-07T22:04:06;19.77;;;17.73;;
20982;SDS011;10650;51.528;6.748;2023-05-07T22:06:37;21.80;;;19.38;;
20982;SDS011;10650;51.528;6.748;2023-05-07T22:09:05;19.60;;;17.70;;
20982;SDS011;10650;51.528;6.748;2023-05-07T22:11:36;20.40;;;18.30;;
20982;SDS011;10650;51.528;6.748;2023-05-07T22:14:10;19.67;;;17.77;;
20982;SDS011;10650;51.528;6.748;2023-05-07T22:16:40;18.58;;;16.80;;
20982;SDS011;10650;51.528;6.748;2023-05-07T22:19:12;24.05;;;21.50;;
20982;SDS011;10650;51.528;6.748;2023-05-07T22:21:41;20.23;;;18.10;;
20982;SDS011;10650;51.528;6.748;2023-05-07T22:24:12;24.80;;;22.13;;
20982;SDS011;10650;51.528;6.748;2023-05-07T22:26:41;27.95;;;23.75;;
20982;SDS011;10650;51.528;6.748;2023-05-07T22:29:14;19.05;;;16.83;;
20982;SDS011;10650;51.528;6.748;2023-05-07T22:31:42;19.70;;;17.77;;
20982;SDS011;10650;51.528;6.748;2023-05-07T22:34:11;29.95;;;24.02;;
20982;SDS011;10650;51.528;6.748;2023-05-07T22:36:44;18.85;;;16.85;;
20982;SDS011;10650;51.528;6.748;2023-05-07T22:39:15;20.00;;;17.70;;
20982;SDS011;10650;51.528;6.748;2023-05-07T22:41:44;20.13;;;18.02;;
20982;SDS011;10650;51.528;6.748;2023-05-07T22:44:14;29.48;;;25.52;;
20982;SDS011;10650;51.528;6.748;2023-05-07T22:46:43;31.13;;;26.38;;
20982;SDS011;10650;51.528;6.748;2023-05-07T22:49:12;20.10;;;17.95;;
20982;SDS011;10650;51.528;6.748;2023-05-07T22:51:41;26.67;;;23.02;;
20982;SDS011;10650;51.528;6.748;2023-05-07T22:54:13;27.42;;;23.58;;
20982;SDS011;10650;51.528;6.748;2023-05-07T22:56:45;23.08;;;20.40;;
20982;SDS011;10650;51.528;6.748;2023-05-07T22:59:15;22.25;;;20.00;;
20982;SDS011;10650;51.528;6.748;2023-05-07T23:01:44;33.90;;;27.33;;
20982;SDS011;10650;51.528;6.748;2023-05-07T23:04:14;27.38;;;24.48;;
20982;SDS011;10650;51.528;6.748;2023-05-07T23:06:42;22.65;;;20.30;;
20982;SDS011;10650;51.528;6.748;2023-05-07T23:09:12;21.98;;;19.73;;
20982;SDS011;10650;51.528;6.748;2023-05-07T23:11:41;24.10;;;21.27;;
20982;SDS011;10650;51.528;6.748;2023-05-07T23:14:10;23.67;;;21.23;;
20982;SDS011;10650;51.528;6.748;2023-05-07T23:16:41;24.48;;;21.98;;
20982;SDS011;10650;51.528;6.748;2023-05-07T23:19:10;27.10;;;24.20;;
20982;SDS011;10650;51.528;6.748;2023-05-07T23:21:38;34.63;;;28.55;;
20982;SDS011;10650;51.528;6.748;2023-05-07T23:24:07;39.22;;;30.88;;
20982;SDS011;10650;51.528;6.748;2023-05-07T23:26:37;28.02;;;25.02;;
20982;SDS011;10650;51.528;6.748;2023-05-07T23:29:06;25.58;;;22.88;;
20982;SDS011;10650;51.528;6.748;2023-05-07T23:31:42;26.42;;;23.65;;
20982;SDS011;10650;51.528;6.748;2023-05-07T23:34:14;26.08;;;23.48;;
20982;SDS011;10650;51.528;6.748;2023-05-07T23:36:50;26.05;;;23.25;;
20982;SDS011;10650;51.528;6.748;2023-05-07T23:39:26;29.02;;;26.02;;
20982;SDS011;10650;51.528;6.748;2023-05-07T23:41:58;26.88;;;24.05;;
20982;SDS011;10650;51.528;6.748;2023-05-07T23:44:29;27.50;;;24.65;;
20982;SDS011;10650;51.528;6.748;2023-05-07T23:47:10;27.50;;;24.65;;
20982;SDS011;10650;51.528;6.748;2023-05-07T23:49:44;26.08;;;23.27;;
20982;SDS011;10650;51.528;6.748;2023-05-07T23:52:13;26.67;;;24.05;;
20982;SDS011;10650;51.528;6.748;2023-05-07T23:54:42;29.02;;;25.92;;
20982;SDS011;10650;51.528;6.748;2023-05-07T23:57:10;27.67;;;24.88;;
20982;SDS011;10650;51.528;6.748;2023-05-07T23:59:39;27.88;;;24.98;;
